Time,TemperatureF,DewpointF,PressureIn,WindDirection,WindDirectionDegrees,WindSpeedMPH,WindSpeedGustMPH,Humidity,HourlyPrecipIn,Conditions,Clouds,dailyrainin,SolarRadiationWatts/m^2,SoftwareType,DateUTC
2013-01-19 00:00:00,41.8,35.8,29.61,SW,220,4.0,4.0,79,0.00,RA,,0.00,0.0,WeatherDisplay:10.37,2013-01-18 23:00:00,
2013-01-19 00:05:00,41.8,35.8,29.61,SW,229,2.3,2.3,79,0.00,RA,,0.00,0.0,WeatherDisplay:10.37,2013-01-18 23:05:00,
2013-01-19 00:10:00,41.9,35.5,29.61,ENE,57,4.6,4.6,78,0.00,FEW,,0.00,0.0,WeatherDisplay:10.37,2013-01-18 23:10:00,
2013-01-19 00:15:00,41.9,35.5,29.61,NNE,16,3.5,3.5,78,0.00,FEW,,0.00,0.0,WeatherDisplay:10.37,2013-01-18 23:15:00,
2013-01-19 00:20:00,42.0,35.6,29.61,East,96,4.6,4.6,78,0.00,,,0.00,0.0,WeatherDisplay:10.37,2013-01-18 23:20:00,
2013-01-19 00:25:00,42.0,35.6,29.61,NNW,335,3.5,3.5,78,0.00,,,0.00,0.0,WeatherDisplay:10.37,2013-01-18 23:25:00,
2013-01-19 00:30:00,42.1,35.7,29.62,SW,229,2.3,2.3,78,0.00,,,0.00,0.0,WeatherDisplay:10.37,2013-01-18 23:30:00,
2013-01-19 00:36:00,42.1,35.7,29.62,WSW,244,2.3,2.3,78,0.00,,,0.00,0.0,WeatherDisplay:10.37,2013-01-18 23:36:00,
2013-01-19 00:41:00,42.1,35.7,29.62,WSW,245,2.3,2.3,78,0.00,,,0.00,0.0,WeatherDisplay:10.37,2013-01-18 23:41:00,
2013-01-19 00:46:00,42.0,35.6,29.62,SSW,211,2.3,2.3,78,0.00,,,0.00,0.0,WeatherDisplay:10.37,2013-01-18 23:46:00,
2013-01-19 00:51:00,41.9,35.9,29.62,SSW,200,3.5,3.5,79,0.00,,,0.00,0.0,WeatherDisplay:10.37,2013-01-18 23:51:00,
2013-01-19 00:56:00,41.8,35.8,29.62,NW,312,2.3,2.3,79,0.00,,,0.00,0.0,WeatherDisplay:10.37,2013-01-18 23:56:00,
2013-01-19 01:01:00,41.9,36.2,29.62,WSW,238,2.0,2.0,80,0.00,,,0.00,0.0,WeatherDisplay:10.37,2013-01-19 00:01:00,
2013-01-19 01:06:00,41.8,36.1,29.62,NE,45,2.3,2.3,80,0.00,,,0.00,0.0,WeatherDisplay:10.37,2013-01-19 00:06:00,
2013-01-19 01:11:00,41.8,36.1,29.62,NE,40,2.3,2.3,80,0.00,,,0.00,0.0,WeatherDisplay:10.37,2013-01-19 00:11:00,
2013-01-19 01:16:00,42.1,36.1,29.62,ESE,111,1.1,1.1,79,0.00,,,0.00,0.0,WeatherDisplay:10.37,2013-01-19 00:16:00,
2013-01-19 01:21:00,42.3,36.3,29.63,ESE,120,0.0,0.0,79,0.00,,,0.00,0.0,WeatherDisplay:10.37,2013-01-19 00:21:00,
2013-01-19 01:26:00,42.4,36.0,29.63,NNE,18,2.3,2.3,78,0.00,,,0.00,0.0,WeatherDisplay:10.37,2013-01-19 00:26:00,
2013-01-19 01:31:00,42.7,36.3,29.63,NE,34,2.3,2.3,78,0.00,,,0.00,0.0,WeatherDisplay:10.37,2013-01-19 00:31:00,
2013-01-19 01:36:00,42.9,36.8,29.63,NE,34,0.0,0.0,79,0.00,,,0.00,0.0,WeatherDisplay:10.37,2013-01-19 00:36:00,
2013-01-19 01:41:00,42.5,36.1,29.63,East,92,5.0,5.0,78,0.00,,,0.00,0.0,WeatherDisplay:10.37,2013-01-19 00:41:00,
2013-01-19 01:46:00,41.8,35.4,29.63,East,97,3.5,3.5,78,0.00,,,0.00,0.0,WeatherDisplay:10.37,2013-01-19 00:46:00,
2013-01-19 01:51:00,41.4,35.4,29.63,East,91,4.6,4.6,79,0.00,,,0.00,0.0,WeatherDisplay:10.37,2013-01-19 00:51:00,
2013-01-19 01:56:00,40.9,34.9,29.64,East,85,1.1,1.1,79,0.00,,,0.00,0.0,WeatherDisplay:10.37,2013-01-19 00:56:00,
2013-01-19 02:01:00,40.6,34.9,29.64,ESE,117,0.0,0.1,80,0.00,,,0.00,0.0,WeatherDisplay:10.37,2013-01-19 01:01:00,
2013-01-19 02:06:00,40.4,35.0,29.64,WNW,292,2.3,2.3,81,0.00,,,0.00,0.0,WeatherDisplay:10.37,2013-01-19 01:06:00,
2013-01-19 02:11:00,40.4,35.3,29.64,NE,36,2.3,2.3,82,0.00,,,0.00,0.0,WeatherDisplay:10.37,2013-01-19 01:11:00,
2013-01-19 02:17:00,40.5,35.7,29.65,NE,39,0.0,0.0,83,0.00,,,0.00,0.0,WeatherDisplay:10.37,2013-01-19 01:17:00,
2013-01-19 02:22:00,40.6,35.8,29.64,NE,39,0.0,0.0,83,0.00,,,0.00,0.0,WeatherDisplay:10.37,2013-01-19 01:22:00,
2013-01-19 02:27:00,40.7,36.2,29.65,NE,39,0.0,0.0,84,0.00,,,0.00,0.0,WeatherDisplay:10.37,2013-01-19 01:27:00,
2013-01-19 02:32:00,40.9,36.4,29.64,NE,39,0.0,0.0,84,0.00,,,0.00,0.0,WeatherDisplay:10.37,2013-01-19 01:32:00,
2013-01-19 02:37:00,41.0,36.5,29.65,NE,39,1.1,1.1,84,0.00,,,0.00,0.0,WeatherDisplay:10.37,2013-01-19 01:37:00,
2013-01-19 02:42:00,41.1,36.6,29.64,NE,39,1.1,0.0,84,0.00,,,0.00,0.0,WeatherDisplay:10.37,2013-01-19 01:42:00,
2013-01-19 02:47:00,41.2,36.7,29.65,NE,39,1.1,1.1,84,0.00,,,0.00,0.0,WeatherDisplay:10.37,2013-01-19 01:47:00,
2013-01-19 02:52:00,41.1,36.6,29.65,NE,39,2.3,2.3,84,0.00,,,0.00,0.0,WeatherDisplay:10.37,2013-01-19 01:52:00,
2013-01-19 02:57:00,41.2,36.7,29.65,NE,39,1.1,1.1,84,0.00,,,0.00,0.0,WeatherDisplay:10.37,2013-01-19 01:57:00,
2013-01-19 03:02:00,41.2,36.7,29.65,NE,39,0.0,0.0,84,0.00,,,0.00,0.0,WeatherDisplay:10.37,2013-01-19 02:02:00,
2013-01-19 03:07:00,41.2,36.4,29.65,NE,39,0.0,0.0,83,0.00,,,0.00,0.0,WeatherDisplay:10.37,2013-01-19 02:07:00,
2013-01-19 03:12:00,41.2,36.4,29.65,NNE,28,2.3,2.3,83,0.00,,,0.00,0.0,WeatherDisplay:10.37,2013-01-19 02:12:00,
2013-01-19 03:17:00,41.3,36.5,29.65,NE,44,3.5,3.5,83,0.00,,,0.00,0.0,WeatherDisplay:10.37,2013-01-19 02:17:00,
2013-01-19 03:22:00,41.2,36.4,29.66,NE,45,2.3,2.3,83,0.00,,,0.00,0.0,WeatherDisplay:10.37,2013-01-19 02:22:00,
2013-01-19 03:27:00,41.3,36.2,29.65,NE,45,1.1,1.1,82,0.00,,,0.00,0.0,WeatherDisplay:10.37,2013-01-19 02:27:00,
2013-01-19 03:32:00,41.5,36.4,29.66,NE,45,0.0,0.0,82,0.00,,,0.00,0.0,WeatherDisplay:10.37,2013-01-19 02:32:00,
2013-01-19 03:37:00,41.5,36.1,29.65,ENE,59,1.1,1.1,81,0.00,,,0.00,0.0,WeatherDisplay:10.37,2013-01-19 02:37:00,
2013-01-19 03:42:00,41.0,35.3,29.65,NNW,328,1.1,1.1,80,0.00,,,0.00,0.0,WeatherDisplay:10.37,2013-01-19 02:42:00,
2013-01-19 03:47:00,40.2,34.8,29.65,West,269,3.5,3.5,81,0.00,,,0.00,0.0,WeatherDisplay:10.37,2013-01-19 02:47:00,
2013-01-19 03:52:00,40.0,35.3,29.65,NNE,23,3.5,3.5,83,0.00,,,0.00,0.0,WeatherDisplay:10.37,2013-01-19 02:52:00,
2013-01-19 03:57:00,40.1,35.7,29.66,South,177,1.1,1.1,84,0.00,,,0.00,0.0,WeatherDisplay:10.37,2013-01-19 02:57:00,
2013-01-19 04:02:00,40.2,35.8,29.66,NNE,29,3.5,3.5,84,0.00,,,0.00,0.0,WeatherDisplay:10.37,2013-01-19 03:02:00,
2013-01-19 04:07:00,40.3,35.8,29.65,WSW,242,2.3,2.3,84,0.00,,,0.00,0.0,WeatherDisplay:10.37,2013-01-19 03:07:00,
2013-01-19 04:12:00,40.0,35.3,29.65,NNE,32,2.3,2.3,83,0.00,,,0.00,0.0,WeatherDisplay:10.37,2013-01-19 03:12:00,
2013-01-19 04:17:00,39.5,34.8,29.65,ENE,67,2.3,2.3,83,0.00,,,0.00,0.0,WeatherDisplay:10.37,2013-01-19 03:17:00,
2013-01-19 04:22:00,39.3,34.9,29.65,ESE,102,2.3,2.3,84,0.00,,,0.00,0.0,WeatherDisplay:10.37,2013-01-19 03:22:00,
2013-01-19 04:27:00,39.5,35.4,29.66,East,82,3.5,3.5,85,0.00,,,0.00,0.0,WeatherDisplay:10.37,2013-01-19 03:27:00,
2013-01-19 04:32:00,39.5,35.1,29.66,East,83,2.3,2.3,84,0.00,,,0.00,0.0,WeatherDisplay:10.37,2013-01-19 03:32:00,
2013-01-19 04:37:00,39.3,34.9,29.66,West,260,2.3,2.3,84,0.00,,,0.00,0.0,WeatherDisplay:10.37,2013-01-19 03:37:00,
2013-01-19 04:42:00,39.1,34.7,29.66,WSW,240,2.3,2.3,84,0.00,,,0.00,0.0,WeatherDisplay:10.37,2013-01-19 03:42:00,
2013-01-19 04:47:00,39.1,34.7,29.66,SSE,150,2.3,2.3,84,0.00,,,0.00,0.0,WeatherDisplay:10.37,2013-01-19 03:47:00,
2013-01-19 04:52:00,39.1,35.0,29.66,SW,215,2.3,2.3,85,0.00,,,0.00,0.0,WeatherDisplay:10.37,2013-01-19 03:52:00,
2013-01-19 04:57:00,39.3,35.2,29.66,South,190,1.1,1.1,85,0.00,,,0.00,0.0,WeatherDisplay:10.37,2013-01-19 03:57:00,
2013-01-19 05:02:00,39.5,35.4,29.66,South,179,2.3,2.3,85,0.00,,,0.00,0.0,WeatherDisplay:10.37,2013-01-19 04:02:00,
2013-01-19 05:07:00,39.9,35.8,29.66,SSE,161,1.1,1.1,85,0.00,,,0.00,0.0,WeatherDisplay:10.37,2013-01-19 04:07:00,
2013-01-19 05:12:00,40.3,35.8,29.66,NNE,15,5.8,5.8,84,0.00,,,0.00,0.0,WeatherDisplay:10.37,2013-01-19 04:12:00,
2013-01-19 05:18:00,40.5,35.7,29.66,ENE,78,1.1,1.1,83,0.00,,,0.00,0.0,WeatherDisplay:10.37,2013-01-19 04:18:00,
2013-01-19 05:23:00,40.8,35.7,29.67,ESE,104,1.1,0.0,82,0.00,,,0.00,0.0,WeatherDisplay:10.37,2013-01-19 04:23:00,
2013-01-19 05:28:00,40.8,35.1,29.67,NE,36,3.5,3.5,80,0.00,,,0.00,0.0,WeatherDisplay:10.37,2013-01-19 04:28:00,
2013-01-19 05:33:00,40.9,34.9,29.67,NE,41,3.5,3.5,79,0.00,,,0.00,0.0,WeatherDisplay:10.37,2013-01-19 04:33:00,
2013-01-19 05:38:00,41.3,35.0,29.67,NE,47,0.0,0.0,78,0.00,,,0.00,0.0,WeatherDisplay:10.37,2013-01-19 04:38:00,
2013-01-19 05:43:00,41.5,34.8,29.67,NE,34,2.3,2.3,77,0.00,,,0.00,0.0,WeatherDisplay:10.37,2013-01-19 04:43:00,
2013-01-19 05:48:00,41.7,34.7,29.67,NE,36,2.3,2.3,76,0.00,,,0.00,0.0,WeatherDisplay:10.37,2013-01-19 04:48:00,
2013-01-19 05:53:00,42.1,35.1,29.67,NE,36,1.1,1.1,76,0.00,,,0.00,0.0,WeatherDisplay:10.37,2013-01-19 04:53:00,
2013-01-19 05:58:00,42.4,35.4,29.67,NE,39,2.3,2.3,76,0.00,,,0.00,0.0,WeatherDisplay:10.37,2013-01-19 04:58:00,
2013-01-19 06:01:00,42.5,35.1,29.67,NE,38,3.5,3.5,75,0.00,,,0.00,0.0,WeatherDisplay:10.37,2013-01-19 05:01:00,
2013-01-19 06:03:00,42.6,35.2,29.67,NNE,29,3.5,3.5,75,0.00,,,0.00,0.0,WeatherDisplay:10.37,2013-01-19 05:03:00,
2013-01-19 06:08:00,42.7,35.0,29.67,North,5,3.5,3.5,74,0.00,,,0.00,0.0,WeatherDisplay:10.37,2013-01-19 05:08:00,
2013-01-19 06:13:00,42.8,35.1,29.68,NNW,342,3.5,3.5,74,0.00,,,0.00,0.0,WeatherDisplay:10.37,2013-01-19 05:13:00,
2013-01-19 06:18:00,43.1,35.4,29.68,NNW,331,3.5,3.5,74,0.00,,,0.00,0.0,WeatherDisplay:10.37,2013-01-19 05:18:00,
2013-01-19 06:23:00,43.3,35.2,29.68,North,355,0.0,0.3,73,0.00,,,0.00,0.0,WeatherDisplay:10.37,2013-01-19 05:23:00,
2013-01-19 06:28:00,43.4,35.3,29.68,NNW,346,3.5,3.5,73,0.00,,,0.00,0.0,WeatherDisplay:10.37,2013-01-19 05:28:00,
2013-01-19 06:33:00,43.6,35.5,29.68,NNW,348,3.5,3.5,73,0.00,,,0.00,0.0,WeatherDisplay:10.37,2013-01-19 05:33:00,
2013-01-19 06:38:00,43.5,35.1,29.68,NNW,348,1.1,1.1,72,0.00,,,0.00,0.0,WeatherDisplay:10.37,2013-01-19 05:38:00,
2013-01-19 06:43:00,43.2,34.8,29.68,North,355,2.3,2.3,72,0.00,,,0.00,0.0,WeatherDisplay:10.37,2013-01-19 05:43:00,
2013-01-19 06:48:00,42.3,34.6,29.68,WSW,238,2.0,2.0,74,0.00,,,0.00,0.0,WeatherDisplay:10.37,2013-01-19 05:48:00,
2013-01-19 06:53:00,41.7,34.4,29.68,NE,34,1.1,1.1,75,0.00,,,0.00,0.0,WeatherDisplay:10.37,2013-01-19 05:53:00,
2013-01-19 06:58:00,41.3,34.3,29.68,NE,34,4.6,4.6,76,0.00,,,0.00,0.0,WeatherDisplay:10.37,2013-01-19 05:58:00,
2013-01-19 07:03:00,41.6,34.9,29.68,NNE,17,3.5,3.5,77,0.00,,,0.00,0.0,WeatherDisplay:10.37,2013-01-19 06:03:00,
2013-01-19 07:08:00,42.1,35.1,29.68,ENE,74,2.0,2.0,76,0.00,,,0.00,0.0,WeatherDisplay:10.37,2013-01-19 06:08:00,
2013-01-19 07:13:00,41.5,34.5,29.69,SW,215,4.6,4.6,76,0.00,,,0.00,0.0,WeatherDisplay:10.37,2013-01-19 06:13:00,
2013-01-19 07:18:00,41.1,34.8,29.69,SW,223,3.5,3.5,78,0.00,,,0.00,0.0,WeatherDisplay:10.37,2013-01-19 06:18:00,
2013-01-19 07:23:00,40.8,34.8,29.69,WSW,241,2.3,2.3,79,0.00,FEW,,0.00,0.0,WeatherDisplay:10.37,2013-01-19 06:23:00,
2013-01-19 07:28:00,40.8,35.1,29.69,West,261,3.5,3.5,80,0.00,FEW,,0.00,0.0,WeatherDisplay:10.37,2013-01-19 06:28:00,
2013-01-19 07:33:00,40.8,35.1,29.69,West,262,2.3,2.3,80,0.00,FEW,,0.00,11.0,WeatherDisplay:10.37,2013-01-19 06:33:00,
2013-01-19 07:38:00,40.6,34.9,29.69,ENE,63,4.6,4.6,80,0.00,FEW,,0.00,18.0,WeatherDisplay:10.37,2013-01-19 06:38:00,
2013-01-19 07:43:00,40.7,35.0,29.69,NNE,33,3.5,3.5,80,0.00,FEW,,0.00,23.0,WeatherDisplay:10.37,2013-01-19 06:43:00,
2013-01-19 07:49:00,40.8,35.1,29.69,SW,216,3.5,3.5,80,0.00,FEW,,0.00,28.0,WeatherDisplay:10.37,2013-01-19 06:49:00,
2013-01-19 07:54:00,41.0,35.3,29.68,NNE,21,3.5,3.5,80,0.00,SCT,,0.00,33.0,WeatherDisplay:10.37,2013-01-19 06:54:00,
2013-01-19 07:59:00,41.2,35.5,29.68,SW,226,3.5,3.5,80,0.00,SCT,,0.00,40.0,WeatherDisplay:10.37,2013-01-19 06:59:00,
2013-01-19 08:04:00,41.2,35.2,29.68,WNW,290,3.5,3.5,79,0.00,SCT,,0.00,42.0,WeatherDisplay:10.37,2013-01-19 07:04:00,
2013-01-19 08:09:00,41.5,35.5,29.68,WSW,253,3.5,3.5,79,0.00,SCT,,0.00,44.0,WeatherDisplay:10.37,2013-01-19 07:09:00,
2013-01-19 08:14:00,41.7,35.7,29.68,SW,232,3.5,3.5,79,0.00,SCT,,0.00,51.0,WeatherDisplay:10.37,2013-01-19 07:14:00,
2013-01-19 08:19:00,42.0,35.6,29.68,West,275,3.5,3.5,78,0.00,SCT,,0.00,58.0,WeatherDisplay:10.37,2013-01-19 07:19:00,
2013-01-19 08:24:00,42.2,35.8,29.68,SW,229,3.5,3.5,78,0.00,SCT,,0.00,65.0,WeatherDisplay:10.37,2013-01-19 07:24:00,
2013-01-19 08:29:00,42.5,35.8,29.68,West,259,3.5,3.5,77,0.00,SCT,,0.00,70.0,WeatherDisplay:10.37,2013-01-19 07:29:00,
2013-01-19 08:34:00,42.6,35.6,29.68,SE,141,3.5,3.5,76,0.00,SCT,,0.00,69.0,WeatherDisplay:10.37,2013-01-19 07:34:00,
2013-01-19 08:39:00,42.7,35.7,29.68,WSW,251,3.5,3.5,76,0.00,SCT,,0.00,74.0,WeatherDisplay:10.37,2013-01-19 07:39:00,
2013-01-19 08:44:00,43.1,35.7,29.68,NE,35,4.6,4.6,75,0.00,SCT,,0.00,79.0,WeatherDisplay:10.37,2013-01-19 07:44:00,
2013-01-19 08:49:00,43.3,35.6,29.68,South,190,3.5,3.5,74,0.00,SCT,,0.00,88.0,WeatherDisplay:10.37,2013-01-19 07:49:00,
2013-01-19 08:54:00,43.6,35.5,29.68,WSW,251,3.5,3.5,73,0.00,SCT,,0.00,102.0,WeatherDisplay:10.37,2013-01-19 07:54:00,
2013-01-19 08:59:00,43.8,35.7,29.68,WSW,248,3.5,3.5,73,0.00,SCT,,0.00,127.0,WeatherDisplay:10.37,2013-01-19 07:59:00,
2013-01-19 09:04:00,44.1,35.6,29.68,NNE,27,6.0,6.0,72,0.00,SCT,,0.00,125.0,WeatherDisplay:10.37,2013-01-19 08:04:00,
2013-01-19 09:09:00,44.3,35.8,29.68,SSW,202,3.5,3.5,72,0.00,SCT,,0.00,144.0,WeatherDisplay:10.37,2013-01-19 08:09:00,
2013-01-19 09:14:00,44.8,36.0,29.68,SW,236,5.8,5.8,71,0.00,SCT,,0.00,246.0,WeatherDisplay:10.37,2013-01-19 08:14:00,
2013-01-19 09:19:00,45.4,36.5,29.68,West,260,6.9,6.9,71,0.00,SCT,,0.00,288.0,WeatherDisplay:10.37,2013-01-19 08:19:00,
2013-01-19 09:24:00,45.9,36.7,29.68,SW,234,3.5,3.5,70,0.00,SCT,,0.00,190.0,WeatherDisplay:10.37,2013-01-19 08:24:00,
2013-01-19 09:29:00,46.3,36.3,29.69,SSW,193,3.5,3.5,68,0.00,SCT,,0.00,264.0,WeatherDisplay:10.37,2013-01-19 08:29:00,
2013-01-19 09:34:00,46.6,36.2,29.68,West,259,4.6,4.6,67,0.00,SCT,,0.00,244.0,WeatherDisplay:10.37,2013-01-19 08:34:00,
2013-01-19 09:39:00,46.9,36.5,29.68,South,172,3.5,3.5,67,0.00,SCT,,0.00,195.0,WeatherDisplay:10.37,2013-01-19 08:39:00,
2013-01-19 09:44:00,47.0,36.2,29.69,ESE,114,4.6,4.6,66,0.00,SCT,,0.00,162.0,WeatherDisplay:10.37,2013-01-19 08:44:00,
2013-01-19 09:49:00,47.1,36.7,29.69,NE,49,3.5,3.5,67,0.00,SCT,,0.00,158.0,WeatherDisplay:10.37,2013-01-19 08:49:00,
2013-01-19 09:54:00,47.1,36.3,29.69,South,181,3.5,3.5,66,0.00,SCT,,0.00,183.0,WeatherDisplay:10.37,2013-01-19 08:54:00,
2013-01-19 09:59:00,47.1,35.9,29.69,West,263,4.6,4.6,65,0.00,SCT,,0.00,190.0,WeatherDisplay:10.37,2013-01-19 08:59:00,
2013-01-19 10:04:00,47.1,36.3,29.69,SW,230,4.0,4.0,66,0.00,SCT,,0.00,176.0,WeatherDisplay:10.37,2013-01-19 09:04:00,
2013-01-19 10:09:00,47.2,36.0,29.69,WSW,246,4.6,4.6,65,0.00,SCT,,0.00,139.0,WeatherDisplay:10.37,2013-01-19 09:09:00,
2013-01-19 10:14:00,47.2,36.0,29.69,SSE,160,3.5,3.5,65,0.00,SCT,,0.00,169.0,WeatherDisplay:10.37,2013-01-19 09:14:00,
2013-01-19 10:19:00,47.3,36.1,29.69,ESE,111,3.5,3.5,65,0.00,SCT,,0.00,178.0,WeatherDisplay:10.37,2013-01-19 09:19:00,
2013-01-19 10:24:00,47.4,35.8,29.70,SW,234,4.0,4.0,64,0.00,SCT,,0.00,149.0,WeatherDisplay:10.37,2013-01-19 09:24:00,
2013-01-19 10:29:00,47.4,35.8,29.69,WSW,245,4.6,4.6,64,0.00,SCT,,0.00,123.0,WeatherDisplay:10.37,2013-01-19 09:29:00,
2013-01-19 10:34:00,47.4,35.8,29.69,SW,229,3.5,3.5,64,0.00,SCT,,0.00,114.0,WeatherDisplay:10.37,2013-01-19 09:34:00,
2013-01-19 10:39:00,47.4,35.8,29.69,ESE,121,4.6,4.6,64,0.00,SCT,,0.00,77.0,WeatherDisplay:10.37,2013-01-19 09:39:00,
2013-01-19 10:44:00,47.5,36.3,29.69,South,188,3.5,3.5,65,0.00,SCT,,0.00,132.0,WeatherDisplay:10.37,2013-01-19 09:44:00,
2013-01-19 10:49:00,47.6,36.4,29.69,West,272,3.5,3.5,65,0.00,SCT,,0.00,218.0,WeatherDisplay:10.37,2013-01-19 09:49:00,
2013-01-19 10:54:00,47.9,36.7,29.69,SSW,192,5.8,5.8,65,0.00,SCT,,0.00,237.0,WeatherDisplay:10.37,2013-01-19 09:54:00,
2013-01-19 10:59:00,48.1,36.9,29.69,WSW,249,5.0,5.0,65,0.00,SCT,,0.00,167.0,WeatherDisplay:10.37,2013-01-19 09:59:00,
2013-01-19 11:04:00,48.3,36.7,29.69,West,277,5.8,5.8,64,0.00,SCT,,0.00,130.0,WeatherDisplay:10.37,2013-01-19 10:04:00,
2013-01-19 11:09:00,48.5,36.9,29.69,South,172,4.0,4.0,64,0.00,SCT,,0.00,338.0,WeatherDisplay:10.37,2013-01-19 10:09:00,
2013-01-19 11:14:00,49.0,37.3,29.69,NE,55,3.5,3.5,64,0.00,SCT,,0.00,290.0,WeatherDisplay:10.37,2013-01-19 10:14:00,
2013-01-19 11:19:00,49.4,37.3,29.69,SSW,205,4.6,4.6,63,0.00,SCT,,0.00,329.0,WeatherDisplay:10.37,2013-01-19 10:19:00,
2013-01-19 11:24:00,49.5,37.0,29.69,SSW,201,4.6,4.6,62,0.00,SCT,,0.00,278.0,WeatherDisplay:10.37,2013-01-19 10:24:00,
2013-01-19 11:29:00,49.6,36.7,29.69,NE,49,3.5,3.5,61,0.00,SCT,,0.00,216.0,WeatherDisplay:10.37,2013-01-19 10:29:00,
2013-01-19 11:34:00,49.7,36.8,29.69,NNW,342,4.6,4.6,61,0.00,SCT,,0.00,176.0,WeatherDisplay:10.37,2013-01-19 10:34:00,
2013-01-19 11:39:00,49.7,37.2,29.69,SW,220,2.0,7.0,62,0.00,SCT,,0.00,141.0,WeatherDisplay:10.37,2013-01-19 10:39:00,
2013-01-19 11:44:00,49.7,37.2,29.69,SSW,209,1.0,5.0,62,0.00,SCT,,0.00,121.0,WeatherDisplay:10.37,2013-01-19 10:44:00,
2013-01-19 11:49:00,49.7,37.6,29.69,NW,309,3.5,3.5,63,0.00,SCT,,0.00,151.0,WeatherDisplay:10.37,2013-01-19 10:49:00,
2013-01-19 11:54:00,49.8,37.7,29.68,SE,137,1.0,3.0,63,0.00,SCT,,0.00,169.0,WeatherDisplay:10.37,2013-01-19 10:54:00,
2013-01-19 11:59:00,49.9,38.2,29.68,ENE,74,2.3,2.3,64,0.00,SCT,,0.00,179.0,WeatherDisplay:10.37,2013-01-19 10:59:00,
2013-01-19 12:04:00,50.1,38.4,29.68,North,351,3.5,3.5,64,0.00,-RA,,0.00,195.0,WeatherDisplay:10.37,2013-01-19 11:04:00,
2013-01-19 12:09:00,50.1,38.0,29.68,NNE,23,1.0,3.0,63,0.00,-RA,,0.00,165.0,WeatherDisplay:10.37,2013-01-19 11:09:00,
2013-01-19 12:14:00,50.3,38.6,29.67,NE,34,3.0,7.0,64,0.00,-RA,,0.00,155.0,WeatherDisplay:10.37,2013-01-19 11:14:00,
2013-01-19 13:47:00,49.0,41.1,29.64,SSE,160,5.8,5.8,74,0.00,-RA,,0.00,56.0,WeatherDisplay:10.37,2013-01-19 12:47:00,
2013-01-19 13:48:00,49.0,41.1,29.64,WSW,250,4.6,4.6,74,0.00,-RA,,0.00,47.0,WeatherDisplay:10.37,2013-01-19 12:48:00,
2013-01-19 13:53:00,49.0,41.1,29.64,SW,228,2.3,2.3,74,0.00,-RA,,0.00,49.0,WeatherDisplay:10.37,2013-01-19 12:53:00,
2013-01-19 13:58:00,49.0,41.1,29.64,SE,130,11.5,11.5,74,0.00,-RA,,0.00,65.0,WeatherDisplay:10.37,2013-01-19 12:58:00,
2013-01-19 14:03:00,49.2,41.3,29.64,WSW,244,8.1,8.1,74,0.00,-RA,,0.00,74.0,WeatherDisplay:10.37,2013-01-19 13:03:00,
2013-01-19 14:08:00,49.2,41.3,29.64,WSW,244,3.5,3.5,74,0.00,-RA,,0.00,77.0,WeatherDisplay:10.37,2013-01-19 13:08:00,
2013-01-19 14:13:00,49.3,41.7,29.64,WSW,245,3.5,3.5,75,0.00,-RA,,0.00,67.0,WeatherDisplay:10.37,2013-01-19 13:13:00,
2013-01-19 14:18:00,49.4,41.5,29.64,NNW,330,8.1,8.1,74,0.00,-RA,,0.00,58.0,WeatherDisplay:10.37,2013-01-19 13:18:00,
2013-01-19 14:23:00,49.3,41.4,29.64,ENE,72,10.4,10.4,74,0.00,-RA,,0.00,83.0,WeatherDisplay:10.37,2013-01-19 13:23:00,
2013-01-19 14:28:00,49.1,41.5,29.63,NNE,32,5.8,5.8,75,0.00,-RA,,0.00,116.0,WeatherDisplay:10.37,2013-01-19 13:28:00,
2013-01-19 14:33:00,49.3,42.1,29.63,West,264,6.0,6.0,76,0.00,-RA,,0.00,79.0,WeatherDisplay:10.37,2013-01-19 13:33:00,
2013-01-19 14:38:00,49.3,42.1,29.63,WSW,242,5.8,5.8,76,0.00,-RA,,0.00,49.0,WeatherDisplay:10.37,2013-01-19 13:38:00,
2013-01-19 14:44:00,49.3,41.7,29.62,NW,314,11.5,11.5,75,0.00,-DZ,,0.00,58.0,WeatherDisplay:10.37,2013-01-19 13:44:00,
2013-01-19 14:48:00,49.1,41.9,29.62,SW,232,8.1,8.1,76,0.00,-DZ,,0.00,53.0,WeatherDisplay:10.37,2013-01-19 13:48:00,
2013-01-19 14:54:00,49.0,41.8,29.62,ESE,119,3.5,3.5,76,0.00,-DZ,,0.00,63.0,WeatherDisplay:10.37,2013-01-19 13:54:00,
2013-01-19 14:59:00,49.0,42.1,29.62,NE,49,9.0,9.0,77,0.00,-DZ,,0.00,77.0,WeatherDisplay:10.37,2013-01-19 13:59:00,
2013-01-19 15:04:00,49.2,42.3,29.62,SW,231,4.6,4.6,77,0.00,-DZ,,0.00,91.0,WeatherDisplay:10.37,2013-01-19 14:04:00,
2013-01-19 15:09:00,49.2,42.6,29.62,SSE,168,3.5,3.5,78,0.00,-DZ,,0.00,81.0,WeatherDisplay:10.37,2013-01-19 14:09:00,
2013-01-19 15:14:00,49.0,42.4,29.61,WSW,246,6.0,6.0,78,0.00,-DZ,,0.00,69.0,WeatherDisplay:10.37,2013-01-19 14:14:00,
2013-01-19 15:19:00,48.7,42.5,29.62,SE,135,8.1,8.1,79,0.00,-DZ,,0.00,62.0,WeatherDisplay:10.37,2013-01-19 14:19:00,
2013-01-19 15:24:00,48.5,42.6,29.62,East,94,8.0,8.0,80,0.00,BKN,,0.00,40.0,WeatherDisplay:10.37,2013-01-19 14:24:00,
2013-01-19 15:29:00,48.4,42.5,29.62,South,169,12.7,12.7,80,0.00,BKN,,0.00,32.0,WeatherDisplay:10.37,2013-01-19 14:29:00,
2013-01-19 15:34:00,48.3,42.7,29.61,SSW,200,11.5,11.5,81,0.00,BKN,,0.00,46.0,WeatherDisplay:10.37,2013-01-19 14:34:00,
2013-01-19 15:39:00,48.2,43.0,29.62,SSW,198,6.9,6.9,82,0.00,BKN,,0.00,56.0,WeatherDisplay:10.37,2013-01-19 14:39:00,
2013-01-19 15:44:00,48.0,43.1,29.62,South,179,8.0,8.0,83,0.00,-DZ,,0.00,40.0,WeatherDisplay:10.37,2013-01-19 14:44:00,
2013-01-19 15:49:00,48.0,43.1,29.61,ESE,120,11.5,11.5,83,0.00,-DZ,,0.00,33.0,WeatherDisplay:10.37,2013-01-19 14:49:00,
2013-01-19 15:54:00,48.1,43.2,29.61,NE,44,8.1,8.1,83,0.00,-DZ,,0.00,28.0,WeatherDisplay:10.37,2013-01-19 14:54:00,
2013-01-19 15:59:00,48.1,43.2,29.61,West,260,5.8,5.8,83,0.00,-DZ,,0.00,19.0,WeatherDisplay:10.37,2013-01-19 14:59:00,
2013-01-19 16:04:00,48.1,43.2,29.62,ENE,67,6.9,6.9,83,0.00,-DZ,,0.00,18.0,WeatherDisplay:10.37,2013-01-19 15:04:00,
2013-01-19 16:09:00,48.1,43.2,29.61,ESE,105,9.2,9.2,83,0.00,-DZ,,0.00,14.0,WeatherDisplay:10.37,2013-01-19 15:09:00,
2013-01-19 16:14:00,48.4,43.5,29.62,West,259,11.5,11.5,83,0.00,-DZ,,0.00,9.0,WeatherDisplay:10.37,2013-01-19 15:14:00,
2013-01-19 16:19:00,48.7,43.5,29.61,SE,128,5.8,5.8,82,0.00,-DZ,,0.00,14.0,WeatherDisplay:10.37,2013-01-19 15:19:00,
2013-01-19 16:24:00,48.9,43.3,29.62,WSW,237,8.1,8.1,81,0.00,BKN,,0.00,7.0,WeatherDisplay:10.37,2013-01-19 15:24:00,
2013-01-19 16:29:00,48.6,43.4,29.61,West,263,16.1,16.1,82,0.00,BKN,,0.00,7.0,WeatherDisplay:10.37,2013-01-19 15:29:00,
2013-01-19 16:34:00,48.2,43.0,29.61,NNW,335,9.2,9.2,82,0.00,BKN,,0.00,7.0,WeatherDisplay:10.37,2013-01-19 15:34:00,
2013-01-19 16:39:00,48.1,43.2,29.61,NNW,341,9.2,9.2,83,0.00,BKN,,0.00,0.0,WeatherDisplay:10.37,2013-01-19 15:39:00,
2013-01-19 16:44:00,48.0,43.4,29.62,West,269,12.7,12.7,84,0.00,-DZ,,0.00,0.0,WeatherDisplay:10.37,2013-01-19 15:44:00,
2013-01-19 16:49:00,47.9,43.6,29.62,East,83,5.8,5.8,85,0.00,-DZ,,0.00,0.0,WeatherDisplay:10.37,2013-01-19 15:49:00,
2013-01-19 16:54:00,47.8,43.5,29.62,NNW,341,5.8,5.8,85,0.00,-DZ,,0.00,0.0,WeatherDisplay:10.37,2013-01-19 15:54:00,
2013-01-19 16:59:00,47.7,43.4,29.62,SW,236,5.8,5.8,85,0.00,-DZ,,0.00,0.0,WeatherDisplay:10.37,2013-01-19 15:59:00,
2013-01-19 17:04:00,47.7,43.7,29.61,SE,130,5.8,5.8,86,0.00,-DZ,,0.00,0.0,WeatherDisplay:10.37,2013-01-19 16:04:00,
2013-01-19 17:09:00,47.7,43.7,29.62,ESE,111,5.8,5.8,86,0.00,-DZ,,0.00,0.0,WeatherDisplay:10.37,2013-01-19 16:09:00,
2013-01-19 17:14:00,48.0,44.0,29.62,West,274,5.8,5.8,86,0.00,-DZ,,0.00,0.0,WeatherDisplay:10.37,2013-01-19 16:14:00,
2013-01-19 17:19:00,48.1,44.1,29.61,SSW,202,10.4,10.4,86,0.00,-DZ,,0.00,0.0,WeatherDisplay:10.37,2013-01-19 16:19:00,
2013-01-19 17:24:00,48.2,43.9,29.62,West,268,11.5,11.5,85,0.00,-DZ,,0.00,0.0,WeatherDisplay:10.37,2013-01-19 16:24:00,
2013-01-19 17:29:00,48.1,44.1,29.61,SW,234,7.0,7.0,86,0.00,-DZ,,0.00,0.0,WeatherDisplay:10.37,2013-01-19 16:29:00,
2013-01-19 17:34:00,48.0,44.0,29.62,NE,46,11.5,11.5,86,0.00,-DZ,,0.00,0.0,WeatherDisplay:10.37,2013-01-19 16:34:00,
2013-01-19 17:39:00,48.0,44.0,29.62,NNE,27,5.8,5.8,86,0.00,-DZ,,0.00,0.0,WeatherDisplay:10.37,2013-01-19 16:39:00,
2013-01-19 17:44:00,48.0,44.0,29.61,NNE,22,9.2,9.2,86,0.00,-RA,,0.00,0.0,WeatherDisplay:10.37,2013-01-19 16:44:00,
2013-01-19 17:49:00,48.0,44.3,29.62,North,350,11.5,11.5,87,0.00,-RA,,0.00,0.0,WeatherDisplay:10.37,2013-01-19 16:49:00,
2013-01-19 17:54:00,48.1,44.4,29.62,NW,305,9.2,9.2,87,0.00,-RA,,0.00,0.0,WeatherDisplay:10.37,2013-01-19 16:54:00,
2013-01-19 17:59:00,48.1,44.4,29.62,West,277,9.2,9.2,87,0.00,-RA,,0.00,0.0,WeatherDisplay:10.37,2013-01-19 16:59:00,
2013-01-19 18:04:00,48.1,44.4,29.62,NE,54,12.7,12.7,87,0.00,-RA,,0.00,0.0,WeatherDisplay:10.37,2013-01-19 17:04:00,
2013-01-19 18:09:00,48.2,44.5,29.62,South,186,10.4,10.4,87,0.00,-RA,,0.00,0.0,WeatherDisplay:10.37,2013-01-19 17:09:00,
2013-01-19 18:15:00,48.4,44.4,29.62,East,85,14.0,14.0,86,0.00,-RA,,0.00,0.0,WeatherDisplay:10.37,2013-01-19 17:15:00,
2013-01-19 18:21:00,48.6,44.6,29.63,ESE,105,11.5,11.5,86,0.00,-RA,,0.00,0.0,WeatherDisplay:10.37,2013-01-19 17:21:00,
2013-01-19 18:26:00,48.6,44.6,29.62,South,187,6.9,6.9,86,0.00,-RA,,0.00,0.0,WeatherDisplay:10.37,2013-01-19 17:26:00,
2013-01-19 18:31:00,48.6,44.6,29.63,WSW,251,12.7,12.7,86,0.00,-RA,,0.00,0.0,WeatherDisplay:10.37,2013-01-19 17:31:00,
2013-01-19 18:37:00,48.9,44.6,29.62,SW,228,9.2,9.2,85,0.00,-RA,,0.00,0.0,WeatherDisplay:10.37,2013-01-19 17:37:00,
2013-01-19 18:41:00,48.9,44.6,29.63,SW,228,9.2,9.2,85,0.00,-RA,,0.00,0.0,WeatherDisplay:10.37,2013-01-19 17:41:00,
2013-01-19 18:47:00,49.0,44.7,29.62,East,84,11.5,11.5,85,0.00,-RA,,0.00,0.0,WeatherDisplay:10.37,2013-01-19 17:47:00,
2013-01-19 18:53:00,49.0,44.4,29.63,NNW,335,13.8,13.8,84,0.00,-RA,,0.00,0.0,WeatherDisplay:10.37,2013-01-19 17:53:00,
2013-01-19 18:58:00,49.2,44.6,29.64,NE,49,10.4,10.4,84,0.00,-RA,,0.00,0.0,WeatherDisplay:10.37,2013-01-19 17:58:00,
2013-01-19 19:03:00,49.1,44.5,29.64,South,177,11.5,11.5,84,0.00,-RA,,0.00,0.0,WeatherDisplay:10.37,2013-01-19 18:03:00,
2013-01-19 19:08:00,49.1,44.5,29.64,NE,53,10.4,10.4,84,0.00,-RA,,0.00,0.0,WeatherDisplay:10.37,2013-01-19 18:08:00,
2013-01-19 19:13:00,49.0,44.7,29.64,NNW,346,12.7,12.7,85,0.00,-RA,,0.00,0.0,WeatherDisplay:10.37,2013-01-19 18:13:00,
2013-01-19 19:18:00,48.9,44.6,29.63,ESE,114,16.1,16.1,85,0.00,-RA,,0.00,0.0,WeatherDisplay:10.37,2013-01-19 18:18:00,
2013-01-19 19:23:00,49.0,44.7,29.63,NNE,24,11.5,11.5,85,0.00,-RA,,0.00,0.0,WeatherDisplay:10.37,2013-01-19 18:23:00,
2013-01-19 19:29:00,49.0,44.7,29.63,West,265,5.8,5.8,85,0.00,-RA,,0.00,0.0,WeatherDisplay:10.37,2013-01-19 18:29:00,
2013-01-19 19:34:00,49.0,44.7,29.63,NW,306,6.9,6.9,85,0.00,-RA,,0.00,0.0,WeatherDisplay:10.37,2013-01-19 18:34:00,
2013-01-19 19:39:00,49.1,44.8,29.63,SW,233,5.0,12.0,85,0.00,-RA,,0.00,0.0,WeatherDisplay:10.37,2013-01-19 18:39:00,
2013-01-19 19:45:00,49.2,44.9,29.64,WSW,240,9.2,9.2,85,0.00,-RA,,0.00,0.0,WeatherDisplay:10.37,2013-01-19 18:45:00,
2013-01-19 19:50:00,49.3,45.0,29.63,SSE,152,11.5,11.5,85,0.00,OVC,,0.00,0.0,WeatherDisplay:10.37,2013-01-19 18:50:00,
2013-01-19 19:55:00,49.4,45.1,29.63,South,169,11.5,11.5,85,0.00,OVC,,0.00,0.0,WeatherDisplay:10.37,2013-01-19 18:55:00,
2013-01-19 20:01:00,49.5,45.2,29.63,North,355,5.8,5.8,85,0.00,OVC,,0.00,0.0,WeatherDisplay:10.37,2013-01-19 19:01:00,
2013-01-19 20:07:00,49.7,45.4,29.63,NNE,18,6.9,6.9,85,0.00,OVC,,0.00,0.0,WeatherDisplay:10.37,2013-01-19 19:07:00,
2013-01-19 20:13:00,49.8,45.2,29.63,SW,219,8.1,8.1,84,0.00,OVC,,0.00,0.0,WeatherDisplay:10.37,2013-01-19 19:13:00,
2013-01-19 20:18:00,50.0,45.4,29.63,ENE,75,6.9,6.9,84,0.00,OVC,,0.00,0.0,WeatherDisplay:10.37,2013-01-19 19:18:00,
2013-01-19 20:23:00,50.1,45.5,29.63,West,275,10.4,10.4,84,0.00,OVC,,0.00,0.0,WeatherDisplay:10.37,2013-01-19 19:23:00,
2013-01-19 20:28:00,50.2,45.6,29.63,NE,53,15.0,15.0,84,0.00,OVC,,0.00,0.0,WeatherDisplay:10.37,2013-01-19 19:28:00,
2013-01-19 20:34:00,50.4,45.7,29.63,SW,220,11.5,11.5,84,0.00,OVC,,0.00,0.0,WeatherDisplay:10.37,2013-01-19 19:34:00,
2013-01-19 20:39:00,50.4,45.7,29.63,NNW,344,12.7,12.7,84,0.00,OVC,,0.00,0.0,WeatherDisplay:10.37,2013-01-19 19:39:00,
2013-01-19 20:44:00,50.5,45.8,29.63,SSW,198,6.9,6.9,84,0.00,-RA,,0.00,0.0,WeatherDisplay:10.37,2013-01-19 19:44:00,
2013-01-19 20:49:00,50.6,45.9,29.63,NW,320,4.6,4.6,84,0.00,-RA,,0.00,0.0,WeatherDisplay:10.37,2013-01-19 19:49:00,
2013-01-19 20:54:00,50.6,46.0,29.63,NE,48,8.0,12.0,84,0.00,-RA,,0.00,0.0,WeatherDisplay:10.37,2013-01-19 19:54:00,
2013-01-19 20:59:00,50.7,46.0,29.63,ENE,57,6.0,12.0,84,0.00,-RA,,0.00,0.0,WeatherDisplay:10.37,2013-01-19 19:59:00,
2013-01-19 21:04:00,50.8,46.1,29.64,ENE,68,11.5,11.5,84,0.00,-RA,,0.00,0.0,WeatherDisplay:10.37,2013-01-19 20:04:00,
2013-01-19 21:09:00,50.9,46.2,29.64,NE,55,3.0,10.0,84,0.00,-RA,,0.00,0.0,WeatherDisplay:10.37,2013-01-19 20:09:00,
2013-01-19 21:14:00,50.9,46.2,29.63,North,350,5.0,7.0,84,0.00,-RA,,0.00,0.0,WeatherDisplay:10.37,2013-01-19 20:14:00,
2013-01-19 21:19:00,51.1,46.4,29.63,NNE,14,8.1,8.1,84,0.00,-RA,,0.00,0.0,WeatherDisplay:10.37,2013-01-19 20:19:00,
2013-01-19 21:25:00,51.5,46.8,29.63,NNE,12,10.4,10.4,84,0.00,-RA,,0.00,0.0,WeatherDisplay:10.37,2013-01-19 20:25:00,
2013-01-19 21:30:00,51.7,47.0,29.63,NNE,26,13.0,13.0,84,0.00,-RA,,0.00,0.0,WeatherDisplay:10.37,2013-01-19 20:30:00,
2013-01-19 21:35:00,51.8,46.8,29.63,WNW,298,3.5,3.5,83,0.00,-RA,,0.00,0.0,WeatherDisplay:10.37,2013-01-19 20:35:00,
2013-01-19 21:40:00,51.8,47.1,29.63,NE,47,5.8,5.8,84,0.01,RA,,0.01,0.0,WeatherDisplay:10.37,2013-01-19 20:40:00,
2013-01-19 21:46:00,51.7,47.3,29.63,WNW,298,4.6,4.6,85,0.01,RA,,0.01,0.0,WeatherDisplay:10.37,2013-01-19 20:46:00,
2013-01-19 21:51:00,51.6,47.2,29.63,NE,42,9.2,9.2,85,0.01,BKN,,0.01,0.0,WeatherDisplay:10.37,2013-01-19 20:51:00,
2013-01-19 21:56:00,51.6,47.2,29.64,NE,43,9.2,9.2,85,0.01,BKN,,0.01,0.0,WeatherDisplay:10.37,2013-01-19 20:56:00,
2013-01-19 22:02:00,51.7,47.6,29.63,West,280,3.5,3.5,86,0.01,-RA,,0.01,0.0,WeatherDisplay:10.37,2013-01-19 21:02:00,
2013-01-19 22:07:00,51.8,47.7,29.63,SW,222,4.6,4.6,86,0.01,-RA,,0.01,0.0,WeatherDisplay:10.37,2013-01-19 21:07:00,
2013-01-19 22:12:00,51.9,48.2,29.63,NNE,18,13.8,13.8,87,0.01,-RA,,0.01,0.0,WeatherDisplay:10.37,2013-01-19 21:12:00,
2013-01-19 22:17:00,52.2,48.1,29.63,NNW,341,9.2,9.2,86,0.01,-RA,,0.01,0.0,WeatherDisplay:10.37,2013-01-19 21:17:00,
2013-01-19 22:22:00,52.2,48.1,29.63,East,95,8.1,8.1,86,0.01,-RA,,0.01,0.0,WeatherDisplay:10.37,2013-01-19 21:22:00,
2013-01-19 22:28:00,52.2,48.1,29.63,WNW,290,3.5,3.5,86,0.01,-RA,,0.01,0.0,WeatherDisplay:10.37,2013-01-19 21:28:00,
2013-01-19 22:33:00,52.2,48.4,29.63,NNW,333,4.0,4.0,87,0.01,-RA,,0.01,0.0,WeatherDisplay:10.37,2013-01-19 21:33:00,
2013-01-19 22:39:00,52.5,48.7,29.63,NNE,26,11.5,11.5,87,0.00,-RA,,0.01,0.0,WeatherDisplay:10.37,2013-01-19 21:39:00,
2013-01-19 22:44:00,52.8,49.0,29.63,NE,53,5.0,5.0,87,0.00,-RA,,0.01,0.0,WeatherDisplay:10.37,2013-01-19 21:44:00,
2013-01-19 22:49:00,53.0,49.2,29.63,NE,36,10.4,10.4,87,0.00,-RA,,0.01,0.0,WeatherDisplay:10.37,2013-01-19 21:49:00,
2013-01-19 22:55:00,53.0,48.9,29.62,SW,232,4.6,4.6,86,0.00,BKN,,0.01,0.0,WeatherDisplay:10.37,2013-01-19 21:55:00,
2013-01-19 23:01:00,52.8,48.7,29.63,WSW,249,3.5,3.5,86,0.00,BKN,,0.01,0.0,WeatherDisplay:10.37,2013-01-19 22:01:00,
2013-01-19 23:06:00,52.8,48.7,29.62,SSW,200,4.6,4.6,86,0.00,BKN,,0.01,0.0,WeatherDisplay:10.37,2013-01-19 22:06:00,
2013-01-19 23:12:00,52.9,48.8,29.62,NW,319,3.5,3.5,86,0.00,BKN,,0.01,0.0,WeatherDisplay:10.37,2013-01-19 22:12:00,
2013-01-19 23:17:00,53.0,48.9,29.62,NNE,13,10.4,10.4,86,0.00,BKN,,0.01,0.0,WeatherDisplay:10.37,2013-01-19 22:17:00,
2013-01-19 23:23:00,53.1,49.0,29.62,NE,45,4.6,4.6,86,0.00,BKN,,0.01,0.0,WeatherDisplay:10.37,2013-01-19 22:23:00,
2013-01-19 23:28:00,53.2,49.1,29.62,West,259,3.5,3.5,86,0.00,BKN,,0.01,0.0,WeatherDisplay:10.37,2013-01-19 22:28:00,
2013-01-19 23:33:00,53.3,49.2,29.61,WSW,249,3.0,3.0,86,0.00,BKN,,0.01,0.0,WeatherDisplay:10.37,2013-01-19 22:33:00,
2013-01-19 23:39:00,53.6,49.5,29.61,SE,145,1.1,0.0,86,0.00,BKN,,0.01,0.0,WeatherDisplay:10.37,2013-01-19 22:39:00,
2013-01-19 23:44:00,54.1,50.0,29.61,NNE,23,2.3,2.3,86,0.00,BKN,,0.01,0.0,WeatherDisplay:10.37,2013-01-19 22:44:00,
2013-01-19 23:49:00,54.3,49.9,29.61,East,82,1.1,0.0,85,0.00,BKN,,0.01,0.0,WeatherDisplay:10.37,2013-01-19 22:49:00,
2013-01-19 23:54:00,54.9,50.8,29.61,SSW,201,3.5,3.5,86,0.00,BKN,,0.01,0.0,WeatherDisplay:10.37,2013-01-19 22:54:00,
2013-01-19 23:59:00,55.3,50.2,29.61,WSW,252,3.0,3.0,83,0.00,BKN,,0.01,0.0,WeatherDisplay:10.37,2013-01-19 22:59:00,